sensor_id;sensor_type;location;lat;lon;timestamp;P1;durP1;ratioP1;P2;durP2;ratioP2
57467;SDS011;43311;51.196;7.518;2023-12-22T00:01:12;7.82;;;1.02;;
57467;SDS011;43311;51.196;7.518;2023-12-22T00:03:43;1.80;;;0.57;;
57467;SDS011;43311;51.196;7.518;2023-12-22T00:06:11;2.97;;;0.60;;
57467;SDS011;43311;51.196;7.518;2023-12-22T00:08:37;5.88;;;0.85;;
57467;SDS011;43311;51.196;7.518;2023-12-22T00:11:03;3.97;;;0.80;;
57467;SDS011;43311;51.196;7.518;2023-12-22T00:13:29;5.80;;;1.65;;
57467;SDS011;43311;51.196;7.518;2023-12-22T00:15:54;6.07;;;0.50;;
57467;SDS011;43311;51.196;7.518;2023-12-22T00:18:20;3.55;;;0.70;;
57467;SDS011;43311;51.196;7.518;2023-12-22T00:20:45;6.25;;;0.80;;
57467;SDS011;43311;51.196;7.518;2023-12-22T00:23:11;3.42;;;0.80;;
57467;SDS011;43311;51.196;7.518;2023-12-22T00:25:36;6.35;;;1.10;;
57467;SDS011;43311;51.196;7.518;2023-12-22T00:28:02;17.20;;;1.95;;
57467;SDS011;43311;51.196;7.518;2023-12-22T00:30:27;7.35;;;1.10;;
57467;SDS011;43311;51.196;7.518;2023-12-22T00:32:53;5.15;;;0.80;;
57467;SDS011;43311;51.196;7.518;2023-12-22T00:35:18;3.97;;;0.95;;
57467;SDS011;43311;51.196;7.518;2023-12-22T00:37:44;11.82;;;1.60;;
57467;SDS011;43311;51.196;7.518;2023-12-22T00:40:09;9.05;;;1.52;;
57467;SDS011;43311;51.196;7.518;2023-12-22T00:42:35;7.72;;;1.10;;
57467;SDS011;43311;51.196;7.518;2023-12-22T00:45:00;6.25;;;1.20;;
57467;SDS011;43311;51.196;7.518;2023-12-22T00:47:27;10.02;;;1.70;;
57467;SDS011;43311;51.196;7.518;2023-12-22T00:49:53;11.77;;;1.60;;
57467;SDS011;43311;51.196;7.518;2023-12-22T00:52:18;8.70;;;1.45;;
57467;SDS011;43311;51.196;7.518;2023-12-22T00:54:44;7.40;;;1.08;;
57467;SDS011;43311;51.196;7.518;2023-12-22T00:57:09;8.00;;;1.15;;
57467;SDS011;43311;51.196;7.518;2023-12-22T00:59:36;6.82;;;1.15;;
57467;SDS011;43311;51.196;7.518;2023-12-22T01:02:01;9.23;;;1.00;;
57467;SDS011;43311;51.196;7.518;2023-12-22T01:04:27;5.30;;;1.33;;
57467;SDS011;43311;51.196;7.518;2023-12-22T01:06:52;7.03;;;1.58;;
57467;SDS011;43311;51.196;7.518;2023-12-22T01:09:18;11.20;;;1.83;;
57467;SDS011;43311;51.196;7.518;2023-12-22T01:11:45;7.68;;;1.42;;
57467;SDS011;43311;51.196;7.518;2023-12-22T01:14:11;3.90;;;1.25;;
57467;SDS011;43311;51.196;7.518;2023-12-22T01:16:38;7.05;;;2.28;;
57467;SDS011;43311;51.196;7.518;2023-12-22T01:19:04;5.00;;;1.40;;
57467;SDS011;43311;51.196;7.518;2023-12-22T01:21:29;11.85;;;2.45;;
57467;SDS011;43311;51.196;7.518;2023-12-22T01:23:55;6.78;;;1.60;;
57467;SDS011;43311;51.196;7.518;2023-12-22T01:26:20;13.60;;;2.03;;
57467;SDS011;43311;51.196;7.518;2023-12-22T01:28:45;9.73;;;1.88;;
57467;SDS011;43311;51.196;7.518;2023-12-22T01:31:11;11.82;;;2.20;;
57467;SDS011;43311;51.196;7.518;2023-12-22T01:33:36;10.05;;;1.50;;
57467;SDS011;43311;51.196;7.518;2023-12-22T01:36:02;3.88;;;0.88;;
57467;SDS011;43311;51.196;7.518;2023-12-22T01:38:28;5.65;;;1.40;;
57467;SDS011;43311;51.196;7.518;2023-12-22T01:40:53;5.13;;;1.80;;
57467;SDS011;43311;51.196;7.518;2023-12-22T01:43:18;7.18;;;1.40;;
57467;SDS011;43311;51.196;7.518;2023-12-22T01:45:55;7.40;;;1.35;;
57467;SDS011;43311;51.196;7.518;2023-12-22T01:48:22;4.50;;;1.75;;
57467;SDS011;43311;51.196;7.518;2023-12-22T01:50:52;6.00;;;1.17;;
57467;SDS011;43311;51.196;7.518;2023-12-22T01:53:19;9.15;;;1.27;;
57467;SDS011;43311;51.196;7.518;2023-12-22T01:55:46;1.80;;;1.35;;
57467;SDS011;43311;51.196;7.518;2023-12-22T01:58:13;4.38;;;0.40;;
57467;SDS011;43311;51.196;7.518;2023-12-22T02:00:39;1.65;;;0.20;;
57467;SDS011;43311;51.196;7.518;2023-12-22T02:03:05;5.43;;;1.17;;
57467;SDS011;43311;51.196;7.518;2023-12-22T02:05:31;2.08;;;0.50;;
57467;SDS011;43311;51.196;7.518;2023-12-22T02:07:57;3.30;;;0.35;;
57467;SDS011;43311;51.196;7.518;2023-12-22T02:10:23;4.70;;;0.73;;
57467;SDS011;43311;51.196;7.518;2023-12-22T02:12:48;0.98;;;0.50;;
57467;SDS011;43311;51.196;7.518;2023-12-22T02:15:14;3.80;;;0.40;;
57467;SDS011;43311;51.196;7.518;2023-12-22T02:20:24;3.75;;;0.40;;
57467;SDS011;43311;51.196;7.518;2023-12-22T02:22:53;7.50;;;0.60;;
57467;SDS011;43311;51.196;7.518;2023-12-22T02:27:50;6.75;;;0.70;;
57467;SDS011;43311;51.196;7.518;2023-12-22T02:30:26;8.43;;;0.90;;
57467;SDS011;43311;51.196;7.518;2023-12-22T02:33:03;6.15;;;0.73;;
57467;SDS011;43311;51.196;7.518;2023-12-22T02:35:30;4.22;;;0.55;;
57467;SDS011;43311;51.196;7.518;2023-12-22T02:37:58;3.45;;;0.55;;
57467;SDS011;43311;51.196;7.518;2023-12-22T02:40:25;4.97;;;0.40;;
57467;SDS011;43311;51.196;7.518;2023-12-22T02:42:52;8.55;;;0.80;;
57467;SDS011;43311;51.196;7.518;2023-12-22T02:45:18;6.68;;;0.40;;
57467;SDS011;43311;51.196;7.518;2023-12-22T02:47:45;6.68;;;0.85;;
57467;SDS011;43311;51.196;7.518;2023-12-22T02:50:11;1.92;;;0.50;;
57467;SDS011;43311;51.196;7.518;2023-12-22T02:52:41;2.00;;;0.50;;
57467;SDS011;43311;51.196;7.518;2023-12-22T02:55:07;4.78;;;0.57;;
57467;SDS011;43311;51.196;7.518;2023-12-22T02:57:33;4.30;;;0.68;;
57467;SDS011;43311;51.196;7.518;2023-12-22T02:59:58;6.00;;;0.88;;
57467;SDS011;43311;51.196;7.518;2023-12-22T03:02:24;10.13;;;0.90;;
57467;SDS011;43311;51.196;7.518;2023-12-22T03:04:49;4.65;;;1.17;;
57467;SDS011;43311;51.196;7.518;2023-12-22T03:07:15;3.80;;;0.70;;
57467;SDS011;43311;51.196;7.518;2023-12-22T03:09:41;6.18;;;0.70;;
57467;SDS011;43311;51.196;7.518;2023-12-22T03:12:07;2.60;;;0.47;;
57467;SDS011;43311;51.196;7.518;2023-12-22T03:14:33;4.35;;;0.80;;
57467;SDS011;43311;51.196;7.518;2023-12-22T03:17:02;1.83;;;0.40;;
57467;SDS011;43311;51.196;7.518;2023-12-22T03:19:29;7.05;;;0.90;;
57467;SDS011;43311;51.196;7.518;2023-12-22T03:21:54;6.22;;;1.00;;
57467;SDS011;43311;51.196;7.518;2023-12-22T03:24:20;5.28;;;0.90;;
57467;SDS011;43311;51.196;7.518;2023-12-22T03:26:47;7.38;;;1.10;;
57467;SDS011;43311;51.196;7.518;2023-12-22T03:29:13;8.30;;;0.85;;
57467;SDS011;43311;51.196;7.518;2023-12-22T03:31:39;7.90;;;1.08;;
57467;SDS011;43311;51.196;7.518;2023-12-22T03:34:04;7.78;;;1.40;;
57467;SDS011;43311;51.196;7.518;2023-12-22T03:36:29;4.65;;;0.68;;
57467;SDS011;43311;51.196;7.518;2023-12-22T03:38:55;5.97;;;0.88;;
57467;SDS011;43311;51.196;7.518;2023-12-22T03:41:20;3.55;;;0.93;;
57467;SDS011;43311;51.196;7.518;2023-12-22T03:43:46;6.30;;;0.60;;
57467;SDS011;43311;51.196;7.518;2023-12-22T03:46:11;2.75;;;0.88;;
57467;SDS011;43311;51.196;7.518;2023-12-22T03:48:37;6.18;;;0.82;;
57467;SDS011;43311;51.196;7.518;2023-12-22T03:51:02;6.32;;;0.80;;
57467;SDS011;43311;51.196;7.518;2023-12-22T03:53:28;8.32;;;1.00;;
57467;SDS011;43311;51.196;7.518;2023-12-22T03:55:53;3.85;;;0.80;;
57467;SDS011;43311;51.196;7.518;2023-12-22T03:58:20;3.85;;;1.02;;
57467;SDS011;43311;51.196;7.518;2023-12-22T04:00:45;6.10;;;2.03;;
57467;SDS011;43311;51.196;7.518;2023-12-22T04:03:10;11.25;;;1.50;;
57467;SDS011;43311;51.196;7.518;2023-12-22T04:05:36;9.82;;;1.73;;
57467;SDS011;43311;51.196;7.518;2023-12-22T04:08:01;10.85;;;1.10;;
57467;SDS011;43311;51.196;7.518;2023-12-22T04:10:27;10.77;;;1.00;;
57467;SDS011;43311;51.196;7.518;2023-12-22T04:12:52;9.60;;;1.27;;
57467;SDS011;43311;51.196;7.518;2023-12-22T04:15:18;8.13;;;1.13;;
57467;SDS011;43311;51.196;7.518;2023-12-22T04:17:43;10.20;;;1.30;;
57467;SDS011;43311;51.196;7.518;2023-12-22T04:20:09;15.25;;;1.67;;
57467;SDS011;43311;51.196;7.518;2023-12-22T04:22:35;8.70;;;1.55;;
57467;SDS011;43311;51.196;7.518;2023-12-22T04:25:00;10.90;;;2.00;;
57467;SDS011;43311;51.196;7.518;2023-12-22T04:27:26;12.23;;;1.88;;
57467;SDS011;43311;51.196;7.518;2023-12-22T04:29:51;21.25;;;2.33;;
57467;SDS011;43311;51.196;7.518;2023-12-22T04:32:17;8.15;;;1.80;;
57467;SDS011;43311;51.196;7.518;2023-12-22T04:34:42;7.38;;;1.73;;
57467;SDS011;43311;51.196;7.518;2023-12-22T04:37:07;8.40;;;2.20;;
57467;SDS011;43311;51.196;7.518;2023-12-22T04:39:33;7.35;;;2.15;;
57467;SDS011;43311;51.196;7.518;2023-12-22T04:41:58;10.98;;;3.03;;
57467;SDS011;43311;51.196;7.518;2023-12-22T04:44:24;9.80;;;2.70;;
57467;SDS011;43311;51.196;7.518;2023-12-22T04:46:49;16.15;;;3.42;;
57467;SDS011;43311;51.196;7.518;2023-12-22T04:49:15;10.98;;;3.00;;
57467;SDS011;43311;51.196;7.518;2023-12-22T04:51:40;11.35;;;2.45;;
57467;SDS011;43311;51.196;7.518;2023-12-22T04:54:06;15.15;;;2.67;;
57467;SDS011;43311;51.196;7.518;2023-12-22T04:56:31;11.32;;;3.03;;
57467;SDS011;43311;51.196;7.518;2023-12-22T04:58:57;11.52;;;2.58;;
57467;SDS011;43311;51.196;7.518;2023-12-22T05:01:22;18.52;;;2.55;;
57467;SDS011;43311;51.196;7.518;2023-12-22T05:03:48;15.43;;;2.67;;
57467;SDS011;43311;51.196;7.518;2023-12-22T05:06:13;11.02;;;2.42;;
57467;SDS011;43311;51.196;7.518;2023-12-22T05:08:39;9.05;;;2.20;;
57467;SDS011;43311;51.196;7.518;2023-12-22T05:11:04;13.50;;;2.78;;
57467;SDS011;43311;51.196;7.518;2023-12-22T05:13:30;13.88;;;1.90;;
57467;SDS011;43311;51.196;7.518;2023-12-22T05:15:55;9.30;;;1.52;;
57467;SDS011;43311;51.196;7.518;2023-12-22T05:18:21;6.32;;;1.42;;
57467;SDS011;43311;51.196;7.518;2023-12-22T05:20:46;9.38;;;1.52;;
57467;SDS011;43311;51.196;7.518;2023-12-22T05:23:12;14.07;;;2.22;;
57467;SDS011;43311;51.196;7.518;2023-12-22T05:25:37;8.52;;;2.13;;
57467;SDS011;43311;51.196;7.518;2023-12-22T05:28:02;10.82;;;2.33;;
57467;SDS011;43311;51.196;7.518;2023-12-22T05:30:28;6.18;;;2.80;;
57467;SDS011;43311;51.196;7.518;2023-12-22T05:32:54;10.50;;;2.90;;
57467;SDS011;43311;51.196;7.518;2023-12-22T05:35:20;12.63;;;3.40;;
57467;SDS011;43311;51.196;7.518;2023-12-22T05:37:46;13.30;;;2.92;;
57467;SDS011;43311;51.196;7.518;2023-12-22T05:40:12;14.10;;;3.58;;
57467;SDS011;43311;51.196;7.518;2023-12-22T05:42:38;12.30;;;3.53;;
57467;SDS011;43311;51.196;7.518;2023-12-22T05:45:03;8.85;;;2.75;;
57467;SDS011;43311;51.196;7.518;2023-12-22T05:47:29;7.65;;;2.55;;
57467;SDS011;43311;51.196;7.518;2023-12-22T05:49:55;6.03;;;2.22;;
57467;SDS011;43311;51.196;7.518;2023-12-22T05:52:20;9.75;;;2.58;;
57467;SDS011;43311;51.196;7.518;2023-12-22T05:54:45;16.52;;;2.90;;
57467;SDS011;43311;51.196;7.518;2023-12-22T05:57:11;6.32;;;2.10;;
57467;SDS011;43311;51.196;7.518;2023-12-22T05:59:37;11.10;;;2.38;;
57467;SDS011;43311;51.196;7.518;2023-12-22T06:02:03;9.82;;;1.60;;
57467;SDS011;43311;51.196;7.518;2023-12-22T06:04:35;5.45;;;1.77;;
57467;SDS011;43311;51.196;7.518;2023-12-22T06:07:01;12.88;;;1.73;;
57467;SDS011;43311;51.196;7.518;2023-12-22T06:09:26;4.32;;;1.58;;
57467;SDS011;43311;51.196;7.518;2023-12-22T06:11:52;7.85;;;1.58;;
57467;SDS011;43311;51.196;7.518;2023-12-22T06:14:17;5.68;;;1.60;;
57467;SDS011;43311;51.196;7.518;2023-12-22T06:16:43;6.78;;;2.08;;
57467;SDS011;43311;51.196;7.518;2023-12-22T06:19:08;10.82;;;2.03;;
57467;SDS011;43311;51.196;7.518;2023-12-22T06:21:37;3.38;;;1.90;;
57467;SDS011;43311;51.196;7.518;2023-12-22T06:24:03;5.80;;;2.70;;
57467;SDS011;43311;51.196;7.518;2023-12-22T06:26:28;3.85;;;1.38;;
57467;SDS011;43311;51.196;7.518;2023-12-22T06:28:54;10.43;;;1.73;;
57467;SDS011;43311;51.196;7.518;2023-12-22T06:31:21;12.02;;;2.05;;
57467;SDS011;43311;51.196;7.518;2023-12-22T06:33:46;4.78;;;1.63;;
57467;SDS011;43311;51.196;7.518;2023-12-22T06:36:23;11.23;;;1.25;;
57467;SDS011;43311;51.196;7.518;2023-12-22T06:38:52;8.32;;;1.38;;
57467;SDS011;43311;51.196;7.518;2023-12-22T06:41:23;16.60;;;2.38;;
57467;SDS011;43311;51.196;7.518;2023-12-22T06:43:53;6.82;;;1.23;;
57467;SDS011;43311;51.196;7.518;2023-12-22T06:46:19;10.75;;;1.27;;
57467;SDS011;43311;51.196;7.518;2023-12-22T06:48:45;8.45;;;1.95;;
57467;SDS011;43311;51.196;7.518;2023-12-22T06:51:21;10.15;;;1.70;;
57467;SDS011;43311;51.196;7.518;2023-12-22T06:53:54;7.78;;;1.63;;
57467;SDS011;43311;51.196;7.518;2023-12-22T06:56:23;5.43;;;1.75;;
57467;SDS011;43311;51.196;7.518;2023-12-22T06:58:50;8.95;;;1.70;;
57467;SDS011;43311;51.196;7.518;2023-12-22T07:01:21;12.88;;;1.90;;
57467;SDS011;43311;51.196;7.518;2023-12-22T07:03:48;6.43;;;1.48;;
57467;SDS011;43311;51.196;7.518;2023-12-22T07:06:14;10.63;;;1.77;;
57467;SDS011;43311;51.196;7.518;2023-12-22T07:08:40;9.65;;;1.52;;
57467;SDS011;43311;51.196;7.518;2023-12-22T07:11:07;10.23;;;2.05;;
57467;SDS011;43311;51.196;7.518;2023-12-22T07:13:33;14.85;;;1.88;;
57467;SDS011;43311;51.196;7.518;2023-12-22T07:15:59;13.63;;;2.55;;
57467;SDS011;43311;51.196;7.518;2023-12-22T07:18:24;11.23;;;1.77;;
57467;SDS011;43311;51.196;7.518;2023-12-22T07:20:50;10.60;;;2.05;;
57467;SDS011;43311;51.196;7.518;2023-12-22T07:23:16;7.90;;;1.65;;
57467;SDS011;43311;51.196;7.518;2023-12-22T07:25:41;20.73;;;2.42;;
57467;SDS011;43311;51.196;7.518;2023-12-22T07:28:06;11.80;;;2.25;;
57467;SDS011;43311;51.196;7.518;2023-12-22T07:30:32;8.77;;;1.60;;
57467;SDS011;43311;51.196;7.518;2023-12-22T07:32:57;12.82;;;2.97;;
57467;SDS011;43311;51.196;7.518;2023-12-22T07:35:23;10.45;;;2.03;;
57467;SDS011;43311;51.196;7.518;2023-12-22T07:37:48;9.45;;;1.95;;
57467;SDS011;43311;51.196;7.518;2023-12-22T07:40:14;19.13;;;2.38;;
57467;SDS011;43311;51.196;7.518;2023-12-22T07:42:39;12.77;;;2.78;;
57467;SDS011;43311;51.196;7.518;2023-12-22T07:45:05;11.77;;;2.50;;
57467;SDS011;43311;51.196;7.518;2023-12-22T07:47:31;8.10;;;1.60;;
57467;SDS011;43311;51.196;7.518;2023-12-22T07:49:57;13.63;;;2.13;;
57467;SDS011;43311;51.196;7.518;2023-12-22T07:52:23;10.20;;;1.83;;
57467;SDS011;43311;51.196;7.518;2023-12-22T07:54:48;9.75;;;2.00;;
57467;SDS011;43311;51.196;7.518;2023-12-22T07:57:14;12.45;;;2.67;;
57467;SDS011;43311;51.196;7.518;2023-12-22T07:59:39;14.80;;;3.20;;
57467;SDS011;43311;51.196;7.518;2023-12-22T08:02:05;14.95;;;2.50;;
57467;SDS011;43311;51.196;7.518;2023-12-22T08:04:30;23.23;;;3.15;;
57467;SDS011;43311;51.196;7.518;2023-12-22T08:06:55;13.93;;;2.75;;
57467;SDS011;43311;51.196;7.518;2023-12-22T08:09:21;16.05;;;3.00;;
57467;SDS011;43311;51.196;7.518;2023-12-22T08:11:48;8.60;;;2.90;;
57467;SDS011;43311;51.196;7.518;2023-12-22T08:14:17;10.13;;;2.97;;
57467;SDS011;43311;51.196;7.518;2023-12-22T08:16:43;16.20;;;2.70;;
57467;SDS011;43311;51.196;7.518;2023-12-22T08:19:09;19.27;;;3.72;;
57467;SDS011;43311;51.196;7.518;2023-12-22T08:21:35;12.82;;;3.70;;
57467;SDS011;43311;51.196;7.518;2023-12-22T08:24:01;17.85;;;2.75;;
57467;SDS011;43311;51.196;7.518;2023-12-22T08:26:26;17.95;;;4.07;;
57467;SDS011;43311;51.196;7.518;2023-12-22T08:28:52;16.75;;;3.45;;
57467;SDS011;43311;51.196;7.518;2023-12-22T08:31:17;12.25;;;3.08;;
57467;SDS011;43311;51.196;7.518;2023-12-22T08:33:43;17.58;;;3.28;;
57467;SDS011;43311;51.196;7.518;2023-12-22T08:36:10;16.67;;;2.50;;
57467;SDS011;43311;51.196;7.518;2023-12-22T08:38:36;14.48;;;2.63;;
57467;SDS011;43311;51.196;7.518;2023-12-22T08:41:05;17.55;;;3.17;;
57467;SDS011;43311;51.196;7.518;2023-12-22T08:43:32;22.27;;;2.75;;
57467;SDS011;43311;51.196;7.518;2023-12-22T08:45:58;13.13;;;2.92;;
57467;SDS011;43311;51.196;7.518;2023-12-22T08:48:23;21.60;;;3.65;;
57467;SDS011;43311;51.196;7.518;2023-12-22T08:50:48;15.50;;;2.78;;
57467;SDS011;43311;51.196;7.518;2023-12-22T08:53:15;16.35;;;2.75;;
57467;SDS011;43311;51.196;7.518;2023-12-22T08:55:40;20.85;;;4.90;;
57467;SDS011;43311;51.196;7.518;2023-12-22T08:58:06;18.10;;;3.72;;
57467;SDS011;43311;51.196;7.518;2023-12-22T09:00:31;23.63;;;4.43;;
57467;SDS011;43311;51.196;7.518;2023-12-22T09:02:56;22.10;;;3.17;;
57467;SDS011;43311;51.196;7.518;2023-12-22T09:05:22;19.27;;;3.47;;
57467;SDS011;43311;51.196;7.518;2023-12-22T09:07:48;19.73;;;3.03;;
57467;SDS011;43311;51.196;7.518;2023-12-22T09:10:14;21.52;;;3.15;;
57467;SDS011;43311;51.196;7.518;2023-12-22T09:12:39;17.63;;;3.13;;
57467;SDS011;43311;51.196;7.518;2023-12-22T09:15:04;16.80;;;3.58;;
57467;SDS011;43311;51.196;7.518;2023-12-22T09:17:30;32.72;;;5.72;;
57467;SDS011;43311;51.196;7.518;2023-12-22T09:19:57;20.60;;;3.95;;
57467;SDS011;43311;51.196;7.518;2023-12-22T09:22:23;19.33;;;3.30;;
57467;SDS011;43311;51.196;7.518;2023-12-22T09:24:48;24.75;;;3.70;;
57467;SDS011;43311;51.196;7.518;2023-12-22T09:27:14;17.27;;;3.22;;
57467;SDS011;43311;51.196;7.518;2023-12-22T09:29:39;15.27;;;2.85;;
57467;SDS011;43311;51.196;7.518;2023-12-22T09:32:05;20.98;;;3.72;;
57467;SDS011;43311;51.196;7.518;2023-12-22T09:34:30;20.77;;;4.07;;
57467;SDS011;43311;51.196;7.518;2023-12-22T09:36:56;15.00;;;2.65;;
57467;SDS011;43311;51.196;7.518;2023-12-22T09:39:21;15.82;;;3.95;;
57467;SDS011;43311;51.196;7.518;2023-12-22T09:41:47;14.50;;;3.08;;
57467;SDS011;43311;51.196;7.518;2023-12-22T09:44:16;13.70;;;3.30;;
57467;SDS011;43311;51.196;7.518;2023-12-22T09:46:47;28.27;;;5.07;;
57467;SDS011;43311;51.196;7.518;2023-12-22T09:49:16;23.77;;;4.15;;
57467;SDS011;43311;51.196;7.518;2023-12-22T09:51:43;22.17;;;4.28;;
57467;SDS011;43311;51.196;7.518;2023-12-22T09:54:12;24.58;;;5.03;;
57467;SDS011;43311;51.196;7.518;2023-12-22T09:56:38;23.20;;;4.07;;
57467;SDS011;43311;51.196;7.518;2023-12-22T09:59:13;17.88;;;3.70;;
57467;SDS011;43311;51.196;7.518;2023-12-22T10:01:40;22.63;;;3.97;;
57467;SDS011;43311;51.196;7.518;2023-12-22T10:04:11;22.35;;;5.10;;
57467;SDS011;43311;51.196;7.518;2023-12-22T10:06:37;23.77;;;6.70;;
57467;SDS011;43311;51.196;7.518;2023-12-22T10:09:03;29.00;;;5.20;;
57467;SDS011;43311;51.196;7.518;2023-12-22T10:11:31;13.93;;;4.68;;
57467;SDS011;43311;51.196;7.518;2023-12-22T10:13:58;28.50;;;5.20;;
57467;SDS011;43311;51.196;7.518;2023-12-22T10:16:25;22.33;;;3.88;;
57467;SDS011;43311;51.196;7.518;2023-12-22T10:18:54;20.27;;;4.35;;
57467;SDS011;43311;51.196;7.518;2023-12-22T10:21:20;19.98;;;3.97;;
57467;SDS011;43311;51.196;7.518;2023-12-22T10:23:46;14.77;;;4.03;;
57467;SDS011;43311;51.196;7.518;2023-12-22T10:26:11;16.38;;;3.80;;
57467;SDS011;43311;51.196;7.518;2023-12-22T10:28:38;14.52;;;4.00;;
57467;SDS011;43311;51.196;7.518;2023-12-22T10:31:03;18.02;;;4.22;;
57467;SDS011;43311;51.196;7.518;2023-12-22T10:33:32;14.90;;;4.53;;
57467;SDS011;43311;51.196;7.518;2023-12-22T10:36:00;13.90;;;3.72;;
57467;SDS011;43311;51.196;7.518;2023-12-22T10:41:02;18.40;;;5.00;;
57467;SDS011;43311;51.196;7.518;2023-12-22T10:43:28;12.20;;;4.90;;
57467;SDS011;43311;51.196;7.518;2023-12-22T10:45:54;19.85;;;4.35;;
57467;SDS011;43311;51.196;7.518;2023-12-22T10:48:20;16.35;;;3.65;;
57467;SDS011;43311;51.196;7.518;2023-12-22T10:50:46;22.55;;;3.75;;
57467;SDS011;43311;51.196;7.518;2023-12-22T10:53:12;13.48;;;4.15;;
57467;SDS011;43311;51.196;7.518;2023-12-22T10:55:37;12.60;;;3.60;;
57467;SDS011;43311;51.196;7.518;2023-12-22T10:58:03;10.45;;;3.45;;
57467;SDS011;43311;51.196;7.518;2023-12-22T11:00:29;17.17;;;3.30;;
57467;SDS011;43311;51.196;7.518;2023-12-22T11:02:59;10.90;;;2.75;;
57467;SDS011;43311;51.196;7.518;2023-12-22T11:05:27;20.60;;;3.15;;
57467;SDS011;43311;51.196;7.518;2023-12-22T11:07:54;13.82;;;2.90;;
57467;SDS011;43311;51.196;7.518;2023-12-22T11:10:23;14.77;;;2.83;;
57467;SDS011;43311;51.196;7.518;2023-12-22T11:12:50;7.13;;;2.13;;
57467;SDS011;43311;51.196;7.518;2023-12-22T11:15:18;11.07;;;1.70;;
57467;SDS011;43311;51.196;7.518;2023-12-22T11:17:44;7.47;;;1.70;;
57467;SDS011;43311;51.196;7.518;2023-12-22T11:20:12;8.90;;;1.88;;
57467;SDS011;43311;51.196;7.518;2023-12-22T11:22:38;6.40;;;2.38;;
57467;SDS011;43311;51.196;7.518;2023-12-22T11:25:04;3.40;;;1.20;;
57467;SDS011;43311;51.196;7.518;2023-12-22T11:27:32;5.80;;;1.05;;
57467;SDS011;43311;51.196;7.518;2023-12-22T11:29:58;2.58;;;0.98;;
57467;SDS011;43311;51.196;7.518;2023-12-22T11:32:26;3.78;;;1.10;;
57467;SDS011;43311;51.196;7.518;2023-12-22T11:34:54;7.07;;;1.00;;
57467;SDS011;43311;51.196;7.518;2023-12-22T11:37:21;1.58;;;0.70;;
57467;SDS011;43311;51.196;7.518;2023-12-22T11:42:59;1.95;;;1.10;;
57467;SDS011;43311;51.196;7.518;2023-12-22T11:45:33;1.42;;;0.98;;
57467;SDS011;43311;51.196;7.518;2023-12-22T11:48:09;5.50;;;0.95;;
57467;SDS011;43311;51.196;7.518;2023-12-22T11:50:35;1.58;;;0.90;;
57467;SDS011;43311;51.196;7.518;2023-12-22T11:53:18;1.92;;;1.02;;
57467;SDS011;43311;51.196;7.518;2023-12-22T11:56:02;2.35;;;1.10;;
57467;SDS011;43311;51.196;7.518;2023-12-22T12:01:05;4.00;;;1.98;;
57467;SDS011;43311;51.196;7.518;2023-12-22T12:03:42;6.18;;;2.88;;
57467;SDS011;43311;51.196;7.518;2023-12-22T12:08:41;5.22;;;3.38;;
57467;SDS011;43311;51.196;7.518;2023-12-22T12:11:07;7.65;;;4.25;;
57467;SDS011;43311;51.196;7.518;2023-12-22T12:13:33;8.27;;;4.85;;
57467;SDS011;43311;51.196;7.518;2023-12-22T12:15:59;5.50;;;3.58;;
57467;SDS011;43311;51.196;7.518;2023-12-22T12:18:29;10.35;;;4.20;;
57467;SDS011;43311;51.196;7.518;2023-12-22T12:20:56;7.13;;;3.22;;
57467;SDS011;43311;51.196;7.518;2023-12-22T12:23:25;5.78;;;3.40;;
57467;SDS011;43311;51.196;7.518;2023-12-22T12:25:52;4.43;;;2.60;;
57467;SDS011;43311;51.196;7.518;2023-12-22T12:28:18;11.90;;;3.95;;
57467;SDS011;43311;51.196;7.518;2023-12-22T12:30:54;6.75;;;2.90;;
57467;SDS011;43311;51.196;7.518;2023-12-22T12:33:26;7.15;;;3.50;;
57467;SDS011;43311;51.196;7.518;2023-12-22T12:35:54;7.25;;;3.30;;
57467;SDS011;43311;51.196;7.518;2023-12-22T12:38:23;6.05;;;3.00;;
57467;SDS011;43311;51.196;7.518;2023-12-22T12:40:58;5.85;;;2.38;;
57467;SDS011;43311;51.196;7.518;2023-12-22T12:43:23;7.90;;;2.80;;
57467;SDS011;43311;51.196;7.518;2023-12-22T12:45:49;4.00;;;2.67;;
57467;SDS011;43311;51.196;7.518;2023-12-22T12:48:17;9.77;;;3.13;;
57467;SDS011;43311;51.196;7.518;2023-12-22T12:50:43;5.60;;;3.30;;
57467;SDS011;43311;51.196;7.518;2023-12-22T12:53:08;6.03;;;3.35;;
57467;SDS011;43311;51.196;7.518;2023-12-22T12:55:34;11.55;;;3.67;;
57467;SDS011;43311;51.196;7.518;2023-12-22T12:57:59;9.00;;;3.90;;
57467;SDS011;43311;51.196;7.518;2023-12-22T13:00:25;5.53;;;3.70;;
57467;SDS011;43311;51.196;7.518;2023-12-22T13:02:55;6.50;;;3.88;;
57467;SDS011;43311;51.196;7.518;2023-12-22T13:05:24;6.53;;;3.33;;
57467;SDS011;43311;51.196;7.518;2023-12-22T13:07:51;4.82;;;2.85;;
57467;SDS011;43311;51.196;7.518;2023-12-22T13:10:22;5.50;;;3.75;;
57467;SDS011;43311;51.196;7.518;2023-12-22T13:12:49;5.28;;;2.78;;
57467;SDS011;43311;51.196;7.518;2023-12-22T13:15:15;3.65;;;2.03;;
57467;SDS011;43311;51.196;7.518;2023-12-22T13:17:41;5.10;;;1.77;;
57467;SDS011;43311;51.196;7.518;2023-12-22T13:20:07;4.40;;;2.45;;
57467;SDS011;43311;51.196;7.518;2023-12-22T13:22:33;5.10;;;1.88;;
57467;SDS011;43311;51.196;7.518;2023-12-22T13:24:59;3.72;;;1.67;;
57467;SDS011;43311;51.196;7.518;2023-12-22T13:27:24;3.15;;;1.70;;
57467;SDS011;43311;51.196;7.518;2023-12-22T13:29:50;2.35;;;1.80;;
57467;SDS011;43311;51.196;7.518;2023-12-22T13:32:17;4.88;;;2.00;;
57467;SDS011;43311;51.196;7.518;2023-12-22T13:34:48;4.00;;;2.22;;
57467;SDS011;43311;51.196;7.518;2023-12-22T13:37:20;6.20;;;2.33;;
57467;SDS011;43311;51.196;7.518;2023-12-22T13:39:46;2.47;;;1.20;;
57467;SDS011;43311;51.196;7.518;2023-12-22T13:42:15;2.92;;;1.20;;
57467;SDS011;43311;51.196;7.518;2023-12-22T13:44:45;1.90;;;1.00;;
57467;SDS011;43311;51.196;7.518;2023-12-22T13:47:18;3.92;;;1.60;;
57467;SDS011;43311;51.196;7.518;2023-12-22T13:49:47;6.30;;;2.35;;
57467;SDS011;43311;51.196;7.518;2023-12-22T13:52:29;3.17;;;2.45;;
57467;SDS011;43311;51.196;7.518;2023-12-22T13:54:59;7.45;;;2.85;;
57467;SDS011;43311;51.196;7.518;2023-12-22T13:57:27;8.48;;;3.38;;
57467;SDS011;43311;51.196;7.518;2023-12-22T13:59:52;4.68;;;3.00;;
57467;SDS011;43311;51.196;7.518;2023-12-22T14:02:21;6.82;;;3.10;;
57467;SDS011;43311;51.196;7.518;2023-12-22T14:04:48;7.85;;;3.50;;
57467;SDS011;43311;51.196;7.518;2023-12-22T14:07:15;6.72;;;3.03;;
57467;SDS011;43311;51.196;7.518;2023-12-22T14:09:40;8.90;;;3.80;;
57467;SDS011;43311;51.196;7.518;2023-12-22T14:12:06;10.63;;;3.72;;
57467;SDS011;43311;51.196;7.518;2023-12-22T14:14:31;6.28;;;3.40;;
57467;SDS011;43311;51.196;7.518;2023-12-22T14:16:57;6.20;;;3.03;;
57467;SDS011;43311;51.196;7.518;2023-12-22T14:19:22;4.97;;;3.40;;
57467;SDS011;43311;51.196;7.518;2023-12-22T14:21:48;8.88;;;3.67;;
57467;SDS011;43311;51.196;7.518;2023-12-22T14:24:13;3.33;;;1.73;;
57467;SDS011;43311;51.196;7.518;2023-12-22T14:26:51;6.90;;;2.33;;
57467;SDS011;43311;51.196;7.518;2023-12-22T14:29:21;6.25;;;2.05;;
57467;SDS011;43311;51.196;7.518;2023-12-22T14:34:16;11.63;;;3.15;;
57467;SDS011;43311;51.196;7.518;2023-12-22T14:36:42;4.25;;;2.58;;
57467;SDS011;43311;51.196;7.518;2023-12-22T14:39:08;9.73;;;3.97;;
57467;SDS011;43311;51.196;7.518;2023-12-22T14:41:36;8.82;;;3.72;;
57467;SDS011;43311;51.196;7.518;2023-12-22T14:44:01;9.95;;;3.80;;
57467;SDS011;43311;51.196;7.518;2023-12-22T14:46:27;9.80;;;3.47;;
57467;SDS011;43311;51.196;7.518;2023-12-22T14:48:52;9.00;;;3.45;;
57467;SDS011;43311;51.196;7.518;2023-12-22T14:51:19;12.27;;;4.07;;
57467;SDS011;43311;51.196;7.518;2023-12-22T14:53:44;6.57;;;3.38;;
57467;SDS011;43311;51.196;7.518;2023-12-22T14:56:10;11.15;;;3.92;;
57467;SDS011;43311;51.196;7.518;2023-12-22T14:58:35;6.25;;;3.85;;